Aérodrome :
LOGIN :

S'inscrire | Disclaimer

   EN    FR    IT 

 










Légende :    VFR   VFR Marginal   IFR   IFR Intensif   IFR Très Intensif
Visi : 
Plafond : 
>= 8 km
>= 3000ft
5 à 8 km
1000 à 3000 ft
1500m à 5 km
500 à 1000 ft
800 à 1500m
200 à 500 ft
< 800m
< 200 ft
Symboles :   Orages  Brouillard  Fortes neiges  Fortes précipitations  Vent > 20 kt
SIGMETs :   Divers  Orages  Givrage  Turbulence  Onde Orograph.  Cendres Volcan.






- Altitude de l'aérodrome : 1411 ft
- Code IATA : GVA


LSGG - Genève Cointrin

DERNIER METAR :
  • 102120Z 26004KT 9999 FEW060TCU 21/18 Q1018 NOSIG

METARs EXPIRÉS :
  • 102050Z VRB02KT 9999 FEW060TCU SCT080 22/18 Q1018 NOSIG
  • 102020Z 25004KT 200V280 9999 FEW060TCU BKN080 22/19 Q1018 NOSIG
  • 101950Z 27005KT 240V310 9999 FEW060 SCT080 22/18 Q1018 NOSIG
  • 101920Z 22006KT 200V280 9999 FEW060 SCT080 23/19 Q1017 NOSIG
  • 101850Z 29003KT 9999 FEW060 SCT080 22/20 Q1016 NOSIG

TAF TAF LSGG
Valide du 10 à 21h jusqu'au 12 à 03h UTC


102025Z 1021/1203 VRB03KT 9999 FEW060 TX33/1115Z TN19/1104Z
BECMG 1109/1111 06007KT
PROB30
TEMPO 1113/1117 TS FEW060CB BKN090
ATIS : +41 22 417 40 81



MET'MAP, la Météo Aéronautique d'un coup d'oeil ! - Copyright ORBIFLY Décembre 2007 - Disclaimer

ORBIFLY MET'MAP TEAM :

Programmation & Développement : Alexandra Zaïnal
Sur une idée originale de : Baudouin d'Aumeries
Assistance à la programmation : Marc-Olivier Méhu
Soutien technique & logistique : Manuel Goepfert

Contact : metmap@orbifly.com




SOURCES & CREDITS :

   NOAA